sensor_id;sensor_type;location;lat;lon;timestamp;P1;durP1;ratioP1;P2;durP2;ratioP2
63930;SDS011;50111;48.114;-2.066;2022-09-09T00:03:33;13.07;;;2.88;;
63930;SDS011;50111;48.114;-2.066;2022-09-09T00:06:06;13.02;;;3.42;;
63930;SDS011;50111;48.114;-2.066;2022-09-09T00:08:45;16.40;;;3.05;;
63930;SDS011;50111;48.114;-2.066;2022-09-09T00:11:19;10.90;;;3.25;;
63930;SDS011;50111;48.114;-2.066;2022-09-09T00:13:52;13.88;;;3.15;;
63930;SDS011;50111;48.114;-2.066;2022-09-09T00:16:22;11.20;;;2.65;;
63930;SDS011;50111;48.114;-2.066;2022-09-09T00:21:39;11.68;;;2.90;;
63930;SDS011;50111;48.114;-2.066;2022-09-09T00:24:10;12.77;;;3.58;;
63930;SDS011;50111;48.114;-2.066;2022-09-09T00:26:42;9.25;;;3.08;;
63930;SDS011;50111;48.114;-2.066;2022-09-09T00:31:56;13.38;;;3.70;;
63930;SDS011;50111;48.114;-2.066;2022-09-09T00:34:24;11.23;;;2.67;;
63930;SDS011;50111;48.114;-2.066;2022-09-09T00:36:52;9.88;;;2.55;;
63930;SDS011;50111;48.114;-2.066;2022-09-09T00:41:55;10.75;;;3.08;;
63930;SDS011;50111;48.114;-2.066;2022-09-09T00:44:30;8.68;;;2.28;;
63930;SDS011;50111;48.114;-2.066;2022-09-09T00:52:31;10.27;;;2.42;;
63930;SDS011;50111;48.114;-2.066;2022-09-09T00:57:29;9.98;;;2.70;;
63930;SDS011;50111;48.114;-2.066;2022-09-09T01:05:13;9.73;;;2.45;;
63930;SDS011;50111;48.114;-2.066;2022-09-09T01:07:42;7.00;;;2.42;;
63930;SDS011;50111;48.114;-2.066;2022-09-09T01:10:13;8.82;;;2.25;;
63930;SDS011;50111;48.114;-2.066;2022-09-09T01:12:43;16.30;;;3.05;;
63930;SDS011;50111;48.114;-2.066;2022-09-09T01:15:14;12.07;;;2.70;;
63930;SDS011;50111;48.114;-2.066;2022-09-09T01:17:54;9.10;;;2.67;;
63930;SDS011;50111;48.114;-2.066;2022-09-09T01:20:24;10.43;;;2.90;;
63930;SDS011;50111;48.114;-2.066;2022-09-09T01:23:00;14.88;;;2.65;;
63930;SDS011;50111;48.114;-2.066;2022-09-09T01:28:19;9.77;;;2.33;;
63930;SDS011;50111;48.114;-2.066;2022-09-09T01:30:47;15.70;;;2.78;;
63930;SDS011;50111;48.114;-2.066;2022-09-09T01:33:17;10.57;;;2.30;;
63930;SDS011;50111;48.114;-2.066;2022-09-09T01:35:54;8.93;;;2.83;;
63930;SDS011;50111;48.114;-2.066;2022-09-09T01:38:21;7.25;;;2.53;;
63930;SDS011;50111;48.114;-2.066;2022-09-09T01:40:48;6.05;;;2.50;;
63930;SDS011;50111;48.114;-2.066;2022-09-09T01:43:14;8.85;;;2.80;;
63930;SDS011;50111;48.114;-2.066;2022-09-09T01:45:40;6.72;;;2.50;;
63930;SDS011;50111;48.114;-2.066;2022-09-09T01:48:08;9.13;;;2.40;;
63930;SDS011;50111;48.114;-2.066;2022-09-09T01:50:34;14.48;;;2.97;;
63930;SDS011;50111;48.114;-2.066;2022-09-09T01:53:00;8.48;;;2.58;;
63930;SDS011;50111;48.114;-2.066;2022-09-09T01:58:32;9.18;;;2.83;;
63930;SDS011;50111;48.114;-2.066;2022-09-09T02:01:02;7.80;;;2.03;;
63930;SDS011;50111;48.114;-2.066;2022-09-09T02:03:31;8.73;;;2.45;;
63930;SDS011;50111;48.114;-2.066;2022-09-09T02:06:05;6.35;;;2.30;;
63930;SDS011;50111;48.114;-2.066;2022-09-09T02:08:39;9.50;;;2.13;;
63930;SDS011;50111;48.114;-2.066;2022-09-09T02:11:11;13.30;;;3.20;;
63930;SDS011;50111;48.114;-2.066;2022-09-09T02:13:38;9.27;;;2.42;;
63930;SDS011;50111;48.114;-2.066;2022-09-09T02:16:07;12.18;;;2.08;;
63930;SDS011;50111;48.114;-2.066;2022-09-09T02:18:44;8.30;;;2.28;;
63930;SDS011;50111;48.114;-2.066;2022-09-09T02:21:12;8.50;;;1.80;;
63930;SDS011;50111;48.114;-2.066;2022-09-09T02:23:39;9.40;;;2.30;;
63930;SDS011;50111;48.114;-2.066;2022-09-09T02:26:06;11.13;;;2.72;;
63930;SDS011;50111;48.114;-2.066;2022-09-09T02:28:33;13.27;;;2.53;;
63930;SDS011;50111;48.114;-2.066;2022-09-09T02:31:00;7.75;;;2.10;;
63930;SDS011;50111;48.114;-2.066;2022-09-09T02:33:27;8.73;;;2.50;;
63930;SDS011;50111;48.114;-2.066;2022-09-09T02:35:54;8.88;;;2.67;;
63930;SDS011;50111;48.114;-2.066;2022-09-09T02:38:26;9.90;;;3.22;;
63930;SDS011;50111;48.114;-2.066;2022-09-09T02:40:54;7.13;;;2.22;;
63930;SDS011;50111;48.114;-2.066;2022-09-09T02:43:20;7.78;;;2.30;;
63930;SDS011;50111;48.114;-2.066;2022-09-09T02:45:57;12.02;;;2.88;;
63930;SDS011;50111;48.114;-2.066;2022-09-09T02:48:36;6.97;;;1.88;;
63930;SDS011;50111;48.114;-2.066;2022-09-09T02:53:49;17.58;;;3.10;;
63930;SDS011;50111;48.114;-2.066;2022-09-09T02:56:17;11.05;;;2.40;;
63930;SDS011;50111;48.114;-2.066;2022-09-09T02:58:44;10.38;;;2.70;;
63930;SDS011;50111;48.114;-2.066;2022-09-09T03:01:11;10.65;;;2.80;;
63930;SDS011;50111;48.114;-2.066;2022-09-09T03:03:37;6.97;;;2.53;;
63930;SDS011;50111;48.114;-2.066;2022-09-09T03:06:04;7.78;;;2.38;;
63930;SDS011;50111;48.114;-2.066;2022-09-09T03:08:30;6.85;;;2.55;;
63930;SDS011;50111;48.114;-2.066;2022-09-09T03:10:58;10.55;;;2.55;;
63930;SDS011;50111;48.114;-2.066;2022-09-09T03:13:26;10.68;;;2.40;;
63930;SDS011;50111;48.114;-2.066;2022-09-09T03:15:52;8.35;;;2.10;;
63930;SDS011;50111;48.114;-2.066;2022-09-09T03:18:18;11.48;;;2.47;;
63930;SDS011;50111;48.114;-2.066;2022-09-09T03:20:45;12.25;;;2.90;;
63930;SDS011;50111;48.114;-2.066;2022-09-09T03:23:15;10.48;;;2.50;;
63930;SDS011;50111;48.114;-2.066;2022-09-09T03:25:51;9.40;;;2.65;;
63930;SDS011;50111;48.114;-2.066;2022-09-09T03:28:17;5.40;;;2.20;;
63930;SDS011;50111;48.114;-2.066;2022-09-09T03:30:43;7.32;;;2.17;;
63930;SDS011;50111;48.114;-2.066;2022-09-09T03:33:09;11.82;;;2.65;;
63930;SDS011;50111;48.114;-2.066;2022-09-09T03:35:35;10.88;;;1.98;;
63930;SDS011;50111;48.114;-2.066;2022-09-09T03:38:01;6.63;;;2.30;;
63930;SDS011;50111;48.114;-2.066;2022-09-09T03:40:27;11.68;;;2.42;;
63930;SDS011;50111;48.114;-2.066;2022-09-09T03:42:53;10.43;;;2.75;;
63930;SDS011;50111;48.114;-2.066;2022-09-09T03:45:19;15.00;;;2.95;;
63930;SDS011;50111;48.114;-2.066;2022-09-09T03:47:45;13.07;;;3.15;;
63930;SDS011;50111;48.114;-2.066;2022-09-09T03:50:11;13.50;;;2.80;;
63930;SDS011;50111;48.114;-2.066;2022-09-09T03:52:38;10.40;;;3.22;;
63930;SDS011;50111;48.114;-2.066;2022-09-09T03:55:05;9.02;;;2.45;;
63930;SDS011;50111;48.114;-2.066;2022-09-09T03:57:32;15.73;;;3.08;;
63930;SDS011;50111;48.114;-2.066;2022-09-09T04:00:00;11.38;;;3.00;;
63930;SDS011;50111;48.114;-2.066;2022-09-09T04:02:26;9.38;;;2.88;;
63930;SDS011;50111;48.114;-2.066;2022-09-09T04:04:52;8.85;;;2.53;;
63930;SDS011;50111;48.114;-2.066;2022-09-09T04:07:18;6.68;;;1.90;;
63930;SDS011;50111;48.114;-2.066;2022-09-09T04:09:44;8.90;;;2.58;;
63930;SDS011;50111;48.114;-2.066;2022-09-09T04:12:10;6.60;;;2.20;;
63930;SDS011;50111;48.114;-2.066;2022-09-09T04:14:38;10.88;;;2.88;;
63930;SDS011;50111;48.114;-2.066;2022-09-09T04:17:04;8.13;;;2.88;;
63930;SDS011;50111;48.114;-2.066;2022-09-09T04:19:31;8.20;;;2.38;;
63930;SDS011;50111;48.114;-2.066;2022-09-09T04:21:57;9.15;;;2.60;;
63930;SDS011;50111;48.114;-2.066;2022-09-09T04:24:24;13.90;;;2.85;;
63930;SDS011;50111;48.114;-2.066;2022-09-09T04:26:54;10.48;;;2.53;;
63930;SDS011;50111;48.114;-2.066;2022-09-09T04:29:20;12.55;;;2.47;;
63930;SDS011;50111;48.114;-2.066;2022-09-09T04:31:46;5.78;;;2.20;;
63930;SDS011;50111;48.114;-2.066;2022-09-09T04:34:12;8.40;;;2.42;;
63930;SDS011;50111;48.114;-2.066;2022-09-09T04:36:38;13.88;;;2.92;;
63930;SDS011;50111;48.114;-2.066;2022-09-09T04:39:05;11.50;;;2.88;;
63930;SDS011;50111;48.114;-2.066;2022-09-09T04:41:31;15.88;;;3.92;;
63930;SDS011;50111;48.114;-2.066;2022-09-09T04:43:57;10.70;;;3.58;;
63930;SDS011;50111;48.114;-2.066;2022-09-09T04:46:24;8.82;;;2.33;;
63930;SDS011;50111;48.114;-2.066;2022-09-09T04:48:51;10.75;;;3.53;;
63930;SDS011;50111;48.114;-2.066;2022-09-09T04:51:17;12.18;;;2.95;;
63930;SDS011;50111;48.114;-2.066;2022-09-09T04:53:43;13.85;;;2.97;;
63930;SDS011;50111;48.114;-2.066;2022-09-09T04:56:11;10.18;;;3.08;;
63930;SDS011;50111;48.114;-2.066;2022-09-09T04:58:37;14.35;;;3.05;;
63930;SDS011;50111;48.114;-2.066;2022-09-09T05:01:07;9.48;;;2.50;;
63930;SDS011;50111;48.114;-2.066;2022-09-09T05:03:34;13.50;;;2.38;;
63930;SDS011;50111;48.114;-2.066;2022-09-09T05:06:06;14.35;;;2.72;;
63930;SDS011;50111;48.114;-2.066;2022-09-09T05:08:33;11.80;;;2.95;;
63930;SDS011;50111;48.114;-2.066;2022-09-09T05:10:59;16.63;;;3.17;;
63930;SDS011;50111;48.114;-2.066;2022-09-09T05:13:26;12.45;;;2.70;;
63930;SDS011;50111;48.114;-2.066;2022-09-09T05:15:53;10.20;;;3.20;;
63930;SDS011;50111;48.114;-2.066;2022-09-09T05:18:19;10.07;;;2.50;;
63930;SDS011;50111;48.114;-2.066;2022-09-09T05:20:47;12.02;;;3.08;;
63930;SDS011;50111;48.114;-2.066;2022-09-09T05:23:13;10.77;;;3.10;;
63930;SDS011;50111;48.114;-2.066;2022-09-09T05:25:39;11.95;;;2.95;;
63930;SDS011;50111;48.114;-2.066;2022-09-09T05:28:07;10.32;;;3.22;;
63930;SDS011;50111;48.114;-2.066;2022-09-09T05:30:33;17.77;;;3.17;;
63930;SDS011;50111;48.114;-2.066;2022-09-09T05:32:59;8.75;;;3.20;;
63930;SDS011;50111;48.114;-2.066;2022-09-09T05:35:26;11.40;;;2.60;;
63930;SDS011;50111;48.114;-2.066;2022-09-09T05:37:52;12.93;;;3.17;;
63930;SDS011;50111;48.114;-2.066;2022-09-09T05:40:18;10.65;;;3.13;;
63930;SDS011;50111;48.114;-2.066;2022-09-09T05:42:46;9.95;;;2.63;;
63930;SDS011;50111;48.114;-2.066;2022-09-09T05:45:12;18.08;;;3.83;;
63930;SDS011;50111;48.114;-2.066;2022-09-09T05:47:38;13.55;;;3.25;;
63930;SDS011;50111;48.114;-2.066;2022-09-09T05:50:04;13.98;;;3.00;;
63930;SDS011;50111;48.114;-2.066;2022-09-09T05:52:30;14.07;;;2.60;;
63930;SDS011;50111;48.114;-2.066;2022-09-09T05:54:57;9.60;;;3.05;;
63930;SDS011;50111;48.114;-2.066;2022-09-09T05:57:24;13.25;;;3.05;;
63930;SDS011;50111;48.114;-2.066;2022-09-09T05:59:50;13.48;;;3.92;;
63930;SDS011;50111;48.114;-2.066;2022-09-09T06:02:16;8.70;;;3.15;;
63930;SDS011;50111;48.114;-2.066;2022-09-09T06:04:42;14.68;;;2.90;;
63930;SDS011;50111;48.114;-2.066;2022-09-09T06:07:08;16.13;;;4.00;;
63930;SDS011;50111;48.114;-2.066;2022-09-09T06:09:34;11.70;;;2.90;;
63930;SDS011;50111;48.114;-2.066;2022-09-09T06:12:00;12.13;;;3.25;;
63930;SDS011;50111;48.114;-2.066;2022-09-09T06:14:26;8.48;;;2.58;;
63930;SDS011;50111;48.114;-2.066;2022-09-09T06:16:52;15.23;;;3.03;;
63930;SDS011;50111;48.114;-2.066;2022-09-09T06:19:18;11.02;;;3.00;;
63930;SDS011;50111;48.114;-2.066;2022-09-09T06:21:45;11.52;;;3.28;;
63930;SDS011;50111;48.114;-2.066;2022-09-09T06:24:12;6.43;;;2.05;;
63930;SDS011;50111;48.114;-2.066;2022-09-09T06:26:42;10.40;;;2.88;;
63930;SDS011;50111;48.114;-2.066;2022-09-09T06:29:09;12.18;;;2.72;;
63930;SDS011;50111;48.114;-2.066;2022-09-09T06:31:36;10.93;;;2.70;;
63930;SDS011;50111;48.114;-2.066;2022-09-09T06:34:06;16.40;;;3.33;;
63930;SDS011;50111;48.114;-2.066;2022-09-09T06:36:33;9.85;;;2.50;;
63930;SDS011;50111;48.114;-2.066;2022-09-09T06:39:00;9.77;;;2.72;;
63930;SDS011;50111;48.114;-2.066;2022-09-09T06:41:27;7.60;;;2.70;;
63930;SDS011;50111;48.114;-2.066;2022-09-09T06:43:53;9.65;;;2.70;;
63930;SDS011;50111;48.114;-2.066;2022-09-09T06:46:24;10.68;;;2.80;;
63930;SDS011;50111;48.114;-2.066;2022-09-09T06:48:53;13.13;;;3.15;;
63930;SDS011;50111;48.114;-2.066;2022-09-09T06:51:21;6.53;;;2.38;;
63930;SDS011;50111;48.114;-2.066;2022-09-09T06:53:49;12.32;;;2.47;;
63930;SDS011;50111;48.114;-2.066;2022-09-09T06:56:20;12.23;;;2.80;;
63930;SDS011;50111;48.114;-2.066;2022-09-09T06:58:47;8.73;;;2.22;;
63930;SDS011;50111;48.114;-2.066;2022-09-09T07:01:17;4.85;;;2.38;;
63930;SDS011;50111;48.114;-2.066;2022-09-09T07:06:22;5.22;;;1.88;;
63930;SDS011;50111;48.114;-2.066;2022-09-09T07:08:50;10.02;;;2.35;;
63930;SDS011;50111;48.114;-2.066;2022-09-09T07:11:16;8.75;;;3.40;;
63930;SDS011;50111;48.114;-2.066;2022-09-09T07:13:42;12.90;;;3.08;;
63930;SDS011;50111;48.114;-2.066;2022-09-09T07:16:12;11.00;;;2.45;;
63930;SDS011;50111;48.114;-2.066;2022-09-09T07:18:39;9.98;;;2.25;;
63930;SDS011;50111;48.114;-2.066;2022-09-09T07:21:05;16.27;;;2.83;;
63930;SDS011;50111;48.114;-2.066;2022-09-09T07:23:32;10.05;;;2.75;;
63930;SDS011;50111;48.114;-2.066;2022-09-09T07:25:58;12.88;;;3.03;;
63930;SDS011;50111;48.114;-2.066;2022-09-09T07:28:25;12.38;;;2.78;;
63930;SDS011;50111;48.114;-2.066;2022-09-09T07:30:55;14.02;;;3.08;;
63930;SDS011;50111;48.114;-2.066;2022-09-09T07:33:22;14.02;;;2.90;;
63930;SDS011;50111;48.114;-2.066;2022-09-09T07:35:49;12.10;;;2.78;;
63930;SDS011;50111;48.114;-2.066;2022-09-09T07:38:15;9.02;;;3.08;;
63930;SDS011;50111;48.114;-2.066;2022-09-09T07:40:41;9.55;;;2.85;;
63930;SDS011;50111;48.114;-2.066;2022-09-09T07:43:07;10.32;;;3.75;;
63930;SDS011;50111;48.114;-2.066;2022-09-09T07:45:33;19.98;;;3.80;;
63930;SDS011;50111;48.114;-2.066;2022-09-09T07:48:01;7.80;;;2.50;;
63930;SDS011;50111;48.114;-2.066;2022-09-09T07:50:27;12.85;;;3.17;;
63930;SDS011;50111;48.114;-2.066;2022-09-09T07:52:53;7.47;;;2.38;;
63930;SDS011;50111;48.114;-2.066;2022-09-09T07:55:22;15.10;;;3.28;;
63930;SDS011;50111;48.114;-2.066;2022-09-09T07:57:50;9.88;;;3.00;;
63930;SDS011;50111;48.114;-2.066;2022-09-09T08:00:16;13.45;;;2.97;;
63930;SDS011;50111;48.114;-2.066;2022-09-09T08:02:43;10.27;;;2.80;;
63930;SDS011;50111;48.114;-2.066;2022-09-09T08:05:11;11.65;;;2.53;;
63930;SDS011;50111;48.114;-2.066;2022-09-09T08:07:37;7.53;;;2.83;;
63930;SDS011;50111;48.114;-2.066;2022-09-09T08:10:04;14.63;;;3.60;;
63930;SDS011;50111;48.114;-2.066;2022-09-09T08:12:31;12.45;;;2.53;;
63930;SDS011;50111;48.114;-2.066;2022-09-09T08:14:57;9.10;;;2.60;;
63930;SDS011;50111;48.114;-2.066;2022-09-09T08:17:23;12.55;;;2.97;;
63930;SDS011;50111;48.114;-2.066;2022-09-09T08:19:49;11.60;;;2.67;;
63930;SDS011;50111;48.114;-2.066;2022-09-09T08:22:15;12.43;;;3.03;;
63930;SDS011;50111;48.114;-2.066;2022-09-09T08:24:41;10.38;;;3.13;;
63930;SDS011;50111;48.114;-2.066;2022-09-09T08:27:07;8.32;;;2.10;;
63930;SDS011;50111;48.114;-2.066;2022-09-09T08:29:34;11.73;;;2.85;;
63930;SDS011;50111;48.114;-2.066;2022-09-09T08:32:02;9.07;;;2.35;;
63930;SDS011;50111;48.114;-2.066;2022-09-09T08:34:29;8.05;;;2.65;;
63930;SDS011;50111;48.114;-2.066;2022-09-09T08:36:56;10.70;;;2.58;;
63930;SDS011;50111;48.114;-2.066;2022-09-09T08:39:22;10.07;;;3.20;;
63930;SDS011;50111;48.114;-2.066;2022-09-09T08:47:20;9.85;;;2.75;;
63930;SDS011;50111;48.114;-2.066;2022-09-09T08:50:33;12.10;;;2.90;;
63930;SDS011;50111;48.114;-2.066;2022-09-09T08:53:22;15.60;;;2.92;;
63930;SDS011;50111;48.114;-2.066;2022-09-09T08:58:09;7.20;;;2.25;;
63930;SDS011;50111;48.114;-2.066;2022-09-09T09:03:38;8.23;;;2.53;;
63930;SDS011;50111;48.114;-2.066;2022-09-09T09:06:19;12.80;;;3.15;;
63930;SDS011;50111;48.114;-2.066;2022-09-09T09:11:36;6.75;;;2.50;;
63930;SDS011;50111;48.114;-2.066;2022-09-09T09:14:07;11.60;;;2.53;;
63930;SDS011;50111;48.114;-2.066;2022-09-09T09:19:12;7.97;;;2.00;;
63930;SDS011;50111;48.114;-2.066;2022-09-09T09:24:07;6.32;;;2.42;;
63930;SDS011;50111;48.114;-2.066;2022-09-09T09:26:37;11.02;;;2.20;;
63930;SDS011;50111;48.114;-2.066;2022-09-09T09:29:17;11.35;;;2.70;;
63930;SDS011;50111;48.114;-2.066;2022-09-09T09:31:48;10.73;;;2.50;;
63930;SDS011;50111;48.114;-2.066;2022-09-09T09:34:16;8.50;;;2.30;;
63930;SDS011;50111;48.114;-2.066;2022-09-09T09:36:44;12.75;;;2.65;;
63930;SDS011;50111;48.114;-2.066;2022-09-09T09:39:22;8.82;;;2.50;;
63930;SDS011;50111;48.114;-2.066;2022-09-09T09:41:48;7.43;;;1.70;;
63930;SDS011;50111;48.114;-2.066;2022-09-09T09:44:25;8.13;;;2.17;;
63930;SDS011;50111;48.114;-2.066;2022-09-09T09:46:52;9.20;;;2.55;;
63930;SDS011;50111;48.114;-2.066;2022-09-09T09:49:18;9.95;;;2.45;;
63930;SDS011;50111;48.114;-2.066;2022-09-09T09:51:44;7.90;;;2.88;;
63930;SDS011;50111;48.114;-2.066;2022-09-09T09:56:41;11.10;;;2.30;;
63930;SDS011;50111;48.114;-2.066;2022-09-09T09:59:19;8.02;;;1.92;;
63930;SDS011;50111;48.114;-2.066;2022-09-09T10:01:45;8.60;;;2.45;;
63930;SDS011;50111;48.114;-2.066;2022-09-09T10:04:16;5.13;;;1.70;;
63930;SDS011;50111;48.114;-2.066;2022-09-09T10:06:43;4.30;;;1.48;;
63930;SDS011;50111;48.114;-2.066;2022-09-09T10:09:29;7.47;;;2.30;;
63930;SDS011;50111;48.114;-2.066;2022-09-09T10:19:36;6.65;;;1.90;;
63930;SDS011;50111;48.114;-2.066;2022-09-09T10:26:59;7.82;;;1.65;;
63930;SDS011;50111;48.114;-2.066;2022-09-09T10:29:34;9.02;;;2.35;;
63930;SDS011;50111;48.114;-2.066;2022-09-09T10:42:43;8.88;;;2.00;;
63930;SDS011;50111;48.114;-2.066;2022-09-09T10:45:17;7.57;;;2.15;;
63930;SDS011;50111;48.114;-2.066;2022-09-09T10:55:27;7.90;;;1.90;;
63930;SDS011;50111;48.114;-2.066;2022-09-09T10:57:55;7.78;;;1.70;;
63930;SDS011;50111;48.114;-2.066;2022-09-09T11:03:02;6.90;;;2.22;;
63930;SDS011;50111;48.114;-2.066;2022-09-09T11:05:43;6.53;;;1.65;;
63930;SDS011;50111;48.114;-2.066;2022-09-09T11:08:12;5.93;;;1.70;;
63930;SDS011;50111;48.114;-2.066;2022-09-09T11:15:58;6.80;;;2.00;;
63930;SDS011;50111;48.114;-2.066;2022-09-09T11:18:26;4.55;;;2.15;;
63930;SDS011;50111;48.114;-2.066;2022-09-09T11:20:57;5.47;;;1.95;;
63930;SDS011;50111;48.114;-2.066;2022-09-09T11:25:52;6.28;;;1.77;;
63930;SDS011;50111;48.114;-2.066;2022-09-09T11:38:26;5.30;;;1.98;;
63930;SDS011;50111;48.114;-2.066;2022-09-09T11:40:56;4.50;;;1.65;;
63930;SDS011;50111;48.114;-2.066;2022-09-09T11:43:25;4.28;;;1.60;;
63930;SDS011;50111;48.114;-2.066;2022-09-09T11:45:53;6.70;;;2.30;;
63930;SDS011;50111;48.114;-2.066;2022-09-09T11:48:41;6.80;;;1.60;;
63930;SDS011;50111;48.114;-2.066;2022-09-09T11:51:12;5.25;;;1.67;;
63930;SDS011;50111;48.114;-2.066;2022-09-09T11:53:49;4.72;;;1.30;;
63930;SDS011;50111;48.114;-2.066;2022-09-09T11:56:24;8.23;;;2.45;;
63930;SDS011;50111;48.114;-2.066;2022-09-09T11:58:59;4.65;;;1.77;;
63930;SDS011;50111;48.114;-2.066;2022-09-09T12:04:01;6.32;;;1.80;;
63930;SDS011;50111;48.114;-2.066;2022-09-09T12:06:31;4.80;;;1.40;;
63930;SDS011;50111;48.114;-2.066;2022-09-09T12:09:08;4.35;;;1.45;;
63930;SDS011;50111;48.114;-2.066;2022-09-09T12:11:36;3.47;;;1.60;;
63930;SDS011;50111;48.114;-2.066;2022-09-09T12:14:02;6.25;;;1.52;;
63930;SDS011;50111;48.114;-2.066;2022-09-09T12:16:29;5.63;;;1.75;;
63930;SDS011;50111;48.114;-2.066;2022-09-09T12:21:35;6.03;;;1.73;;
63930;SDS011;50111;48.114;-2.066;2022-09-09T12:24:06;8.13;;;2.03;;
63930;SDS011;50111;48.114;-2.066;2022-09-09T12:31:28;6.30;;;1.80;;
63930;SDS011;50111;48.114;-2.066;2022-09-09T12:34:02;7.03;;;1.52;;
63930;SDS011;50111;48.114;-2.066;2022-09-09T12:36:29;4.68;;;1.48;;
63930;SDS011;50111;48.114;-2.066;2022-09-09T12:38:59;8.30;;;2.00;;
63930;SDS011;50111;48.114;-2.066;2022-09-09T12:41:35;6.60;;;1.67;;
63930;SDS011;50111;48.114;-2.066;2022-09-09T12:44:05;4.72;;;1.50;;
63930;SDS011;50111;48.114;-2.066;2022-09-09T12:46:34;5.00;;;1.50;;
63930;SDS011;50111;48.114;-2.066;2022-09-09T12:49:02;4.38;;;1.67;;
63930;SDS011;50111;48.114;-2.066;2022-09-09T12:51:30;7.07;;;1.60;;
63930;SDS011;50111;48.114;-2.066;2022-09-09T12:53:56;6.53;;;1.90;;
63930;SDS011;50111;48.114;-2.066;2022-09-09T12:56:24;4.28;;;1.27;;
63930;SDS011;50111;48.114;-2.066;2022-09-09T12:58:52;4.60;;;1.60;;
63930;SDS011;50111;48.114;-2.066;2022-09-09T13:01:23;3.53;;;1.40;;
63930;SDS011;50111;48.114;-2.066;2022-09-09T13:03:49;5.60;;;1.50;;
63930;SDS011;50111;48.114;-2.066;2022-09-09T13:06:20;7.05;;;1.58;;
63930;SDS011;50111;48.114;-2.066;2022-09-09T13:08:47;6.13;;;1.60;;
63930;SDS011;50111;48.114;-2.066;2022-09-09T13:11:15;6.38;;;1.38;;
63930;SDS011;50111;48.114;-2.066;2022-09-09T13:13:43;6.55;;;2.00;;
63930;SDS011;50111;48.114;-2.066;2022-09-09T13:16:18;4.95;;;1.70;;
63930;SDS011;50111;48.114;-2.066;2022-09-09T13:18:45;3.72;;;1.40;;
63930;SDS011;50111;48.114;-2.066;2022-09-09T13:21:12;6.15;;;1.33;;
63930;SDS011;50111;48.114;-2.066;2022-09-09T13:23:39;5.57;;;1.65;;
63930;SDS011;50111;48.114;-2.066;2022-09-09T13:26:06;5.60;;;1.70;;
63930;SDS011;50111;48.114;-2.066;2022-09-09T13:28:46;5.70;;;1.48;;
63930;SDS011;50111;48.114;-2.066;2022-09-09T13:31:28;4.47;;;1.58;;
63930;SDS011;50111;48.114;-2.066;2022-09-09T13:33:54;4.10;;;1.67;;
63930;SDS011;50111;48.114;-2.066;2022-09-09T13:36:30;5.57;;;2.13;;
63930;SDS011;50111;48.114;-2.066;2022-09-09T13:38:57;3.60;;;1.55;;
63930;SDS011;50111;48.114;-2.066;2022-09-09T13:41:34;3.40;;;1.30;;
63930;SDS011;50111;48.114;-2.066;2022-09-09T13:44:01;4.03;;;1.10;;
63930;SDS011;50111;48.114;-2.066;2022-09-09T13:49:01;3.85;;;1.50;;
63930;SDS011;50111;48.114;-2.066;2022-09-09T13:51:29;4.78;;;1.63;;
63930;SDS011;50111;48.114;-2.066;2022-09-09T13:53:56;3.03;;;1.23;;
63930;SDS011;50111;48.114;-2.066;2022-09-09T13:56:22;2.97;;;0.98;;
63930;SDS011;50111;48.114;-2.066;2022-09-09T13:58:48;3.97;;;0.98;;
63930;SDS011;50111;48.114;-2.066;2022-09-09T14:01:14;3.13;;;1.33;;
63930;SDS011;50111;48.114;-2.066;2022-09-09T14:03:40;4.85;;;1.83;;
63930;SDS011;50111;48.114;-2.066;2022-09-09T14:06:07;4.20;;;1.77;;
63930;SDS011;50111;48.114;-2.066;2022-09-09T14:08:33;4.18;;;1.48;;
63930;SDS011;50111;48.114;-2.066;2022-09-09T14:11:02;3.17;;;1.23;;
63930;SDS011;50111;48.114;-2.066;2022-09-09T14:13:28;2.63;;;0.90;;
63930;SDS011;50111;48.114;-2.066;2022-09-09T14:15:54;3.28;;;1.13;;
63930;SDS011;50111;48.114;-2.066;2022-09-09T14:18:21;4.63;;;1.40;;
63930;SDS011;50111;48.114;-2.066;2022-09-09T14:20:48;7.20;;;1.60;;
63930;SDS011;50111;48.114;-2.066;2022-09-09T14:23:15;5.00;;;1.38;;
63930;SDS011;50111;48.114;-2.066;2022-09-09T14:25:42;2.55;;;1.00;;
63930;SDS011;50111;48.114;-2.066;2022-09-09T14:28:09;4.18;;;1.30;;
63930;SDS011;50111;48.114;-2.066;2022-09-09T14:30:36;4.65;;;1.45;;
63930;SDS011;50111;48.114;-2.066;2022-09-09T14:33:02;4.82;;;1.40;;
63930;SDS011;50111;48.114;-2.066;2022-09-09T14:35:29;3.88;;;1.38;;
63930;SDS011;50111;48.114;-2.066;2022-09-09T14:37:55;5.30;;;1.42;;
63930;SDS011;50111;48.114;-2.066;2022-09-09T14:40:21;5.07;;;1.52;;
63930;SDS011;50111;48.114;-2.066;2022-09-09T14:42:47;3.35;;;1.20;;
63930;SDS011;50111;48.114;-2.066;2022-09-09T14:45:13;6.57;;;1.67;;
63930;SDS011;50111;48.114;-2.066;2022-09-09T14:47:39;6.25;;;1.60;;
63930;SDS011;50111;48.114;-2.066;2022-09-09T14:50:06;5.47;;;1.63;;
63930;SDS011;50111;48.114;-2.066;2022-09-09T14:52:32;2.53;;;1.15;;
63930;SDS011;50111;48.114;-2.066;2022-09-09T14:54:59;3.88;;;1.55;;
63930;SDS011;50111;48.114;-2.066;2022-09-09T14:57:25;3.50;;;1.67;;
63930;SDS011;50111;48.114;-2.066;2022-09-09T14:59:51;7.03;;;1.67;;
63930;SDS011;50111;48.114;-2.066;2022-09-09T15:02:17;4.18;;;1.27;;
63930;SDS011;50111;48.114;-2.066;2022-09-09T15:04:43;5.25;;;1.73;;
63930;SDS011;50111;48.114;-2.066;2022-09-09T15:07:09;6.72;;;1.52;;
63930;SDS011;50111;48.114;-2.066;2022-09-09T15:09:35;2.28;;;1.20;;
63930;SDS011;50111;48.114;-2.066;2022-09-09T15:12:02;5.50;;;1.50;;
63930;SDS011;50111;48.114;-2.066;2022-09-09T15:14:29;8.02;;;1.60;;
63930;SDS011;50111;48.114;-2.066;2022-09-09T15:16:55;6.07;;;1.38;;
63930;SDS011;50111;48.114;-2.066;2022-09-09T15:19:21;4.72;;;1.10;;
63930;SDS011;50111;48.114;-2.066;2022-09-09T15:21:47;10.38;;;1.70;;
63930;SDS011;50111;48.114;-2.066;2022-09-09T15:24:14;3.47;;;1.30;;
63930;SDS011;50111;48.114;-2.066;2022-09-09T15:26:41;6.95;;;1.40;;
63930;SDS011;50111;48.114;-2.066;2022-09-09T15:29:07;3.47;;;1.30;;
63930;SDS011;50111;48.114;-2.066;2022-09-09T15:31:33;3.40;;;1.20;;
63930;SDS011;50111;48.114;-2.066;2022-09-09T15:34:06;3.15;;;1.10;;
63930;SDS011;50111;48.114;-2.066;2022-09-09T15:38:59;2.00;;;0.82;;
63930;SDS011;50111;48.114;-2.066;2022-09-09T15:41:26;6.30;;;1.60;;
63930;SDS011;50111;48.114;-2.066;2022-09-09T15:43:54;5.13;;;1.63;;
63930;SDS011;50111;48.114;-2.066;2022-09-09T15:46:24;4.45;;;1.48;;
63930;SDS011;50111;48.114;-2.066;2022-09-09T15:48:58;3.97;;;1.48;;
63930;SDS011;50111;48.114;-2.066;2022-09-09T15:51:24;3.22;;;1.20;;
63930;SDS011;50111;48.114;-2.066;2022-09-09T15:53:57;7.10;;;1.67;;
63930;SDS011;50111;48.114;-2.066;2022-09-09T15:56:24;5.97;;;1.23;;
63930;SDS011;50111;48.114;-2.066;2022-09-09T15:58:50;4.32;;;1.38;;
63930;SDS011;50111;48.114;-2.066;2022-09-09T16:01:17;4.82;;;1.98;;
63930;SDS011;50111;48.114;-2.066;2022-09-09T16:03:44;6.32;;;1.52;;
63930;SDS011;50111;48.114;-2.066;2022-09-09T16:06:15;9.15;;;1.50;;
63930;SDS011;50111;48.114;-2.066;2022-09-09T16:08:44;4.25;;;1.50;;
63930;SDS011;50111;48.114;-2.066;2022-09-09T16:13:37;4.07;;;1.15;;
63930;SDS011;50111;48.114;-2.066;2022-09-09T16:16:04;3.92;;;1.20;;
63930;SDS011;50111;48.114;-2.066;2022-09-09T16:18:34;7.07;;;1.63;;
63930;SDS011;50111;48.114;-2.066;2022-09-09T16:21:00;5.05;;;1.42;;
63930;SDS011;50111;48.114;-2.066;2022-09-09T16:23:26;4.18;;;1.58;;
63930;SDS011;50111;48.114;-2.066;2022-09-09T16:25:53;4.75;;;1.40;;
63930;SDS011;50111;48.114;-2.066;2022-09-09T16:28:20;3.42;;;1.13;;
63930;SDS011;50111;48.114;-2.066;2022-09-09T16:30:46;5.18;;;1.33;;
63930;SDS011;50111;48.114;-2.066;2022-09-09T16:33:12;5.95;;;1.88;;
63930;SDS011;50111;48.114;-2.066;2022-09-09T16:35:41;7.93;;;1.63;;
63930;SDS011;50111;48.114;-2.066;2022-09-09T16:38:07;3.47;;;1.00;;
63930;SDS011;50111;48.114;-2.066;2022-09-09T16:40:34;5.68;;;1.65;;
63930;SDS011;50111;48.114;-2.066;2022-09-09T16:43:01;4.85;;;1.85;;